Time;durP1;ratioP1;P1;durP2;ratioP2;P2;SDS_P1;SDS_P2;PMS_P1;PMS_P2;Temp;Humidity;BMP_temperature;BMP_pressure;BME280_temperature;BME280_humidity;BME280_pressure;Samples;Min_cycle;Max_cycle;Signal;HPM_P1;HPM_P2
2021/07/10 00:00:25;;;;;;;19.37;8.90;;;;;;;17.60;100.00;101162.09;1749192;82;21971;-39
2021/07/10 00:02:51;;;;;;;18.70;9.40;;;;;;;17.59;100.00;101165.61;1748870;82;20925;-39
2021/07/10 00:05:18;;;;;;;23.00;10.43;;;;;;;17.60;100.00;101165.54;1749136;82;20952;-39
2021/07/10 00:07:44;;;;;;;30.43;10.48;;;;;;;17.59;100.00;101157.77;1749110;82;20957;-39
2021/07/10 00:10:15;;;;;;;32.88;11.22;;;;;;;17.58;100.00;101162.59;1749160;82;21063;-39
2021/07/10 00:12:41;;;;;;;23.95;9.30;;;;;;;17.56;100.00;101157.88;1749003;82;21084;-38
2021/07/10 00:15:15;;;;;;;23.62;10.50;;;;;;;17.52;100.00;101157.96;1714459;82;20983;-38
2021/07/10 00:17:42;;;;;;;33.42;10.55;;;;;;;17.47;100.00;101154.67;1749358;82;20952;-38
2021/07/10 00:20:10;;;;;;;30.85;9.78;;;;;;;17.47;100.00;101166.44;1749060;81;20964;-38
2021/07/10 00:22:37;;;;;;;25.77;10.08;;;;;;;17.50;100.00;101154.55;1748005;81;20971;-39
2021/07/10 00:25:07;;;;;;;34.27;11.15;;;;;;;17.52;100.00;101157.96;1735145;82;21973;-38
2021/07/10 00:27:35;;;;;;;19.52;9.53;;;;;;;17.51;100.00;101159.34;1735070;82;20980;-39
2021/07/10 00:30:03;;;;;;;29.12;9.73;;;;;;;17.49;100.00;101155.46;1735349;82;20968;-38
2021/07/10 00:32:29;;;;;;;21.15;9.60;;;;;;;17.46;100.00;101151.66;1735211;81;20996;-39
2021/07/10 00:34:56;;;;;;;29.55;10.05;;;;;;;17.46;100.00;101148.20;1735293;82;20980;-39
2021/07/10 00:37:22;;;;;;;26.70;10.00;;;;;;;17.44;100.00;101147.41;1735089;82;21931;-39
2021/07/10 00:39:48;;;;;;;29.00;10.30;;;;;;;17.42;100.00;101147.88;1734983;82;21004;-38
2021/07/10 00:42:21;;;;;;;31.68;9.78;;;;;;;17.40;100.00;101147.95;1735078;81;20964;-39
2021/07/10 00:44:46;;;;;;;30.77;10.48;;;;;;;17.37;100.00;101143.67;1735273;82;20996;-39
2021/07/10 00:47:13;;;;;;;24.85;10.63;;;;;;;17.33;100.00;101143.86;1735333;82;20976;-39
2021/07/10 00:49:41;;;;;;;29.55;10.48;;;;;;;17.31;100.00;101141.76;1735337;81;21965;-39
2021/07/10 00:52:07;;;;;;;31.40;10.88;;;;;;;17.29;100.00;101143.11;1735191;82;21466;-39
2021/07/10 00:54:33;;;;;;;42.17;10.70;;;;;;;17.27;100.00;101143.62;1735626;82;21474;-39
2021/07/10 00:57:00;;;;;;;29.27;10.20;;;;;;;17.26;100.00;101142.35;1714587;82;21525;-39
2021/07/10 00:59:28;;;;;;;43.90;9.55;;;;;;;17.26;100.00;101138.43;1735423;82;21003;-39
2021/07/10 01:01:54;;;;;;;27.42;9.15;;;;;;;17.25;100.00;101148.05;1735155;82;21128;-39
2021/07/10 01:04:22;;;;;;;21.80;9.48;;;;;;;17.26;100.00;101146.27;1735312;82;20913;-39
2021/07/10 01:06:48;;;;;;;22.98;9.78;;;;;;;17.31;100.00;101148.30;1735247;82;21000;-39
2021/07/10 01:09:15;;;;;;;23.57;9.53;;;;;;;17.36;100.00;101143.28;1735343;82;21692;-39
2021/07/10 01:11:43;;;;;;;24.18;10.00;;;;;;;17.40;100.00;101146.65;1735097;81;20965;-39
2021/07/10 01:14:11;;;;;;;22.25;9.73;;;;;;;17.44;100.00;101143.00;1735299;82;21004;-39
2021/07/10 01:16:38;;;;;;;22.40;9.85;;;;;;;17.45;100.00;101142.09;1735144;81;20925;-39
2021/07/10 01:19:06;;;;;;;22.70;9.65;;;;;;;17.41;100.00;101137.89;1735291;82;20976;-39
2021/07/10 01:21:33;;;;;;;20.50;9.70;;;;;;;17.41;100.00;101138.33;1735727;81;20929;-39
2021/07/10 01:23:59;;;;;;;26.42;10.00;;;;;;;17.45;100.00;101134.24;1742477;81;20977;-39
2021/07/10 01:26:25;;;;;;;22.87;9.70;;;;;;;17.54;100.00;101140.91;1720186;82;21133;-39
2021/07/10 01:28:52;;;;;;;24.35;10.05;;;;;;;17.62;100.00;101132.30;1714303;82;21039;-39
2021/07/10 01:31:18;;;;;;;21.90;10.20;;;;;;;17.68;100.00;101127.30;1749225;81;21003;-39
2021/07/10 01:33:45;;;;;;;20.60;10.45;;;;;;;17.72;100.00;101129.36;1749202;82;21006;-38
2021/07/10 01:36:11;;;;;;;25.90;10.38;;;;;;;17.74;100.00;101122.30;1749286;82;21035;-39
2021/07/10 01:38:39;;;;;;;20.57;10.60;;;;;;;17.70;100.00;101120.25;1749314;80;20904;-39
2021/07/10 01:41:05;;;;;;;25.15;9.45;;;;;;;17.66;100.00;101121.28;1749276;80;21478;-39
2021/07/10 01:43:32;;;;;;;24.77;8.65;;;;;;;17.62;100.00;101121.00;1749264;82;20972;-39
2021/07/10 01:45:58;;;;;;;18.95;8.85;;;;;;;17.57;100.00;101121.16;1749186;82;21019;-39
2021/07/10 01:48:24;;;;;;;16.62;9.30;;;;;;;17.55;100.00;101122.12;1749677;82;20956;-39
2021/07/10 01:50:51;;;;;;;26.65;9.18;;;;;;;17.57;100.00;101122.47;1749397;82;21891;-39
2021/07/10 01:53:18;;;;;;;17.55;9.13;;;;;;;17.57;100.00;101129.48;1749427;82;20909;-39
2021/07/10 01:55:44;;;;;;;23.62;8.93;;;;;;;17.56;100.00;101127.78;1749288;82;20932;-39
2021/07/10 01:58:11;;;;;;;18.98;8.63;;;;;;;17.52;100.00;101125.25;1749183;80;21046;-39
2021/07/10 02:00:41;;;;;;;17.35;8.73;;;;;;;17.49;100.00;101124.53;1749337;82;20951;-39
2021/07/10 02:03:08;;;;;;;12.75;8.18;;;;;;;17.48;100.00;101119.73;1749194;82;21140;-39
2021/07/10 02:05:36;;;;;;;18.80;8.88;;;;;;;17.48;100.00;101122.35;1749243;82;21466;-38
2021/07/10 02:08:05;;;;;;;18.90;8.30;;;;;;;17.47;100.00;101123.27;1749374;80;21517;-39
2021/07/10 02:10:32;;;;;;;15.43;8.08;;;;;;;17.47;100.00;101123.27;1749114;82;21529;-39
2021/07/10 02:13:08;;;;;;;12.63;8.00;;;;;;;17.48;100.00;101124.97;1749167;82;21010;-39
2021/07/10 02:15:35;;;;;;;14.07;8.10;;;;;;;17.48;100.00;101122.82;1749307;82;21081;-39
2021/07/10 02:18:03;;;;;;;13.22;7.15;;;;;;;17.49;100.00;101126.67;1749189;80;21470;-39
2021/07/10 02:20:31;;;;;;;25.62;8.45;;;;;;;17.52;100.00;101125.25;1715063;82;20920;-38
2021/07/10 02:22:57;;;;;;;27.35;8.80;;;;;;;17.58;100.00;101124.17;1749127;80;20885;-39
2021/07/10 02:25:26;;;;;;;20.52;8.33;;;;;;;17.63;100.00;101133.17;1749163;81;20999;-39
2021/07/10 02:27:52;;;;;;;20.20;8.63;;;;;;;17.68;100.00;101124.69;1749109;82;22015;-38
2021/07/10 02:30:24;;;;;;;21.45;8.28;;;;;;;17.78;100.00;101122.11;1749101;82;21473;-39
2021/07/10 02:32:50;;;;;;;29.55;8.53;;;;;;;17.86;100.00;101121.81;1749208;82;21485;-39
2021/07/10 02:35:17;;;;;;;24.30;8.25;;;;;;;17.93;100.00;101129.83;1749320;82;21030;-39
2021/07/10 02:37:44;;;;;;;21.73;8.63;;;;;;;17.95;100.00;101120.61;1714507;82;21018;-39
2021/07/10 02:40:13;;;;;;;26.33;8.93;;;;;;;18.00;100.00;101121.75;1749046;82;21155;-39
2021/07/10 02:42:39;;;;;;;40.70;9.53;;;;;;;18.03;100.00;101114.64;1749160;82;20987;-39
2021/07/10 02:45:11;;;;;;;29.70;8.90;;;;;;;18.09;100.00;101114.86;1749145;80;20964;-39
2021/07/10 02:47:39;;;;;;;18.80;8.40;;;;;;;18.17;100.00;101114.09;1749150;82;21019;-39
2021/07/10 02:50:08;;;;;;;27.80;8.15;;;;;;;18.25;100.00;101115.09;1749151;82;20960;-38
2021/07/10 02:52:34;;;;;;;26.45;8.18;;;;;;;18.33;100.00;101115.66;1749156;82;21128;-39
2021/07/10 02:55:01;;;;;;;21.37;7.55;;;;;;;18.40;100.00;101107.06;1749103;82;21552;-39
2021/07/10 02:57:27;;;;;;;28.98;8.90;;;;;;;18.48;100.00;101106.31;1749226;82;20976;-38
2021/07/10 02:59:54;;;;;;;25.72;7.50;;;;;;;18.58;100.00;101106.79;1749190;82;20979;-39
2021/07/10 03:02:20;;;;;;;21.30;7.95;;;;;;;18.66;100.00;101109.93;1714414;82;21028;-39
2021/07/10 03:04:47;;;;;;;26.35;8.48;;;;;;;18.75;100.00;101110.45;1749216;82;21962;-38
2021/07/10 03:07:13;;;;;;;24.05;7.80;;;;;;;18.85;100.00;101113.53;1749002;82;20944;-38
2021/07/10 03:09:39;;;;;;;17.20;6.90;;;;;;;18.94;100.00;101113.12;1749220;82;20976;-39
2021/07/10 03:12:07;;;;;;;22.10;7.55;;;;;;;19.03;100.00;101119.78;1749112;82;20933;-39
2021/07/10 03:14:33;;;;;;;13.20;6.85;;;;;;;19.12;100.00;101121.16;1749286;82;20941;-39
2021/07/10 03:17:00;;;;;;;14.78;6.90;;;;;;;19.19;100.00;101116.89;1714384;82;22054;-38
2021/07/10 03:19:26;;;;;;;18.23;7.15;;;;;;;19.27;99.91;101117.00;1748984;82;20999;-39
2021/07/10 03:21:54;;;;;;;21.80;6.50;;;;;;;19.35;98.71;101118.36;1749134;82;20936;-38
2021/07/10 03:24:21;;;;;;;19.70;6.22;;;;;;;19.45;98.06;101114.86;1743348;81;20948;-39
2021/07/10 03:26:47;;;;;;;13.95;6.05;;;;;;;19.53;96.30;101113.21;1735268;82;21060;-39
2021/07/10 03:29:14;;;;;;;14.30;6.00;;;;;;;19.59;94.19;101114.71;1735224;82;21956;-38
2021/07/10 03:31:40;;;;;;;29.25;6.72;;;;;;;19.67;92.52;101113.41;1735153;81;21071;-39
2021/07/10 03:34:07;;;;;;;23.80;6.80;;;;;;;19.78;91.44;101112.08;1735189;82;20949;-39
2021/07/10 03:36:33;;;;;;;19.37;6.35;;;;;;;19.85;89.55;101109.54;1735144;82;21508;-38
2021/07/10 03:38:59;;;;;;;27.60;6.33;;;;;;;19.96;88.48;101110.38;1735289;82;21415;-38
2021/07/10 03:41:26;;;;;;;12.28;5.92;;;;;;;20.04;86.46;101106.91;1735132;82;21057;-38
2021/07/10 03:43:53;;;;;;;16.57;6.22;;;;;;;20.18;85.37;101107.55;1735104;82;21020;-38
2021/07/10 03:46:19;;;;;;;13.58;5.70;;;;;;;20.32;84.15;101106.88;1735226;82;20976;-39
2021/07/10 03:48:47;;;;;;;12.65;5.90;;;;;;;20.50;82.63;101099.02;1735291;82;20972;-39
2021/07/10 03:51:14;;;;;;;13.13;6.47;;;;;;;20.74;82.34;101106.14;1735202;81;20964;-39
2021/07/10 03:53:40;;;;;;;13.72;5.62;;;;;;;21.04;81.04;101113.41;1735269;82;21105;-39
2021/07/10 03:56:08;;;;;;;11.12;5.75;;;;;;;21.36;79.54;101116.59;1735174;81;20961;-39
2021/07/10 03:58:35;;;;;;;14.83;5.87;;;;;;;21.71;78.62;101117.79;1714354;82;21016;-39
2021/07/10 04:01:02;;;;;;;9.53;5.40;;;;;;;22.08;76.60;101110.45;1735136;82;21529;-39
2021/07/10 04:03:28;;;;;;;13.75;5.20;;;;;;;22.44;74.94;101106.27;1735104;81;20957;-39
2021/07/10 04:05:55;;;;;;;14.98;6.85;;;;;;;22.76;72.38;101107.49;1735086;82;21146;-39
2021/07/10 04:08:22;;;;;;;11.18;6.92;;;;;;;23.02;69.86;101110.34;1735107;82;20996;-39
2021/07/10 04:10:48;;;;;;;13.53;6.05;;;;;;;23.21;68.14;101105.64;1735106;82;21000;-39
2021/07/10 04:13:15;;;;;;;9.63;5.60;;;;;;;23.43;67.65;101103.02;1735074;81;20905;-39
2021/07/10 04:15:43;;;;;;;11.05;5.30;;;;;;;23.62;64.63;101106.66;1735216;82;20976;-39
2021/07/10 04:18:09;;;;;;;13.15;5.37;;;;;;;23.80;63.74;101108.59;1735159;82;21118;-39
2021/07/10 04:20:36;;;;;;;12.25;4.65;;;;;;;23.99;63.62;101109.20;1734910;82;20992;-39
2021/07/10 04:23:05;;;;;;;6.72;4.30;;;;;;;24.25;62.25;101106.20;1735236;82;21494;-39
2021/07/10 04:25:31;;;;;;;7.10;5.20;;;;;;;24.47;61.21;101103.45;1734957;82;21099;-39
2021/07/10 04:27:58;;;;;;;14.50;5.95;;;;;;;24.62;60.36;101098.43;1735114;81;20858;-39
2021/07/10 04:30:24;;;;;;;6.95;5.25;;;;;;;24.73;59.62;101099.52;1735000;81;21042;-39
2021/07/10 04:32:51;;;;;;;10.03;5.12;;;;;;;24.78;59.38;101098.75;1735052;81;20917;-39
2021/07/10 04:35:18;;;;;;;14.30;5.28;;;;;;;24.90;59.50;101096.59;1735133;82;21057;-39
2021/07/10 04:40:16;;;;;;;15.83;4.78;;;;;;;25.08;58.64;101099.75;1797684;79;22709;-39
2021/07/10 04:42:43;;;;;;;9.93;5.03;;;;;;;25.11;58.08;101100.00;1757352;80;21007;-39
2021/07/10 04:45:12;;;;;;;10.40;5.08;;;;;;;25.15;57.67;101094.02;1757411;81;21659;-39
2021/07/10 04:47:39;;;;;;;6.72;5.03;;;;;;;25.14;57.66;101083.92;1757386;81;21517;-39
2021/07/10 04:50:07;;;;;;;10.50;4.72;;;;;;;25.22;57.82;101084.68;1757210;81;20960;-39
2021/07/10 04:52:34;;;;;;;12.35;5.30;;;;;;;25.32;56.95;101081.77;1757408;81;20995;-39
2021/07/10 04:55:00;;;;;;;7.67;4.60;;;;;;;25.39;56.85;101079.03;1757539;81;20937;-39
2021/07/10 04:57:26;;;;;;;7.55;4.75;;;;;;;25.53;57.01;101078.56;1757464;81;21958;-39
2021/07/10 04:59:53;;;;;;;12.68;5.17;;;;;;;25.73;56.87;101073.12;1757107;80;20975;-40
2021/07/10 05:02:19;;;;;;;8.63;4.50;;;;;;;25.82;56.05;101068.47;1756664;81;20960;-39
2021/07/10 05:04:46;;;;;;;7.53;5.00;;;;;;;25.97;56.51;101066.98;1749012;81;20924;-39
2021/07/10 05:07:12;;;;;;;8.93;4.97;;;;;;;26.23;56.79;101063.71;1749397;82;21007;-39
2021/07/10 05:09:38;;;;;;;12.20;4.95;;;;;;;26.51;55.49;101062.10;1749149;82;21203;-39
2021/07/10 05:12:06;;;;;;;20.68;5.90;;;;;;;26.72;54.95;101060.09;1749031;81;20952;-39
2021/07/10 05:14:33;;;;;;;15.65;5.60;;;;;;;27.00;54.07;101064.09;1748970;81;20975;-39
2021/07/10 05:16:59;;;;;;;18.95;5.50;;;;;;;27.23;52.50;101064.94;1749147;81;21027;-39
2021/07/10 05:19:26;;;;;;;18.32;5.40;;;;;;;27.33;52.81;101064.19;1748972;82;21118;-39
2021/07/10 05:21:52;;;;;;;12.03;5.47;;;;;;;27.55;52.21;101076.64;1749133;82;21175;-39
2021/07/10 05:24:19;;;;;;;17.55;5.70;;;;;;;27.84;51.66;101074.73;1748974;80;20952;-39
2021/07/10 05:26:46;;;;;;;16.48;5.35;;;;;;;28.14;51.08;101074.48;1749145;81;21000;-40
2021/07/10 05:29:12;;;;;;;11.03;5.12;;;;;;;28.38;50.32;101074.25;1749056;82;21561;-39
2021/07/10 05:31:38;;;;;;;12.13;5.22;;;;;;;28.54;50.74;101075.61;1749089;82;21529;-39
2021/07/10 05:34:06;;;;;;;11.97;5.30;;;;;;;28.77;49.64;101071.47;1748845;81;21039;-39
2021/07/10 05:36:32;;;;;;;15.60;5.12;;;;;;;28.92;48.35;101074.64;1748797;80;20909;-39
2021/07/10 05:38:58;;;;;;;13.55;5.37;;;;;;;28.99;49.08;101074.95;1749320;81;20976;-39
2021/07/10 05:41:26;;;;;;;14.98;5.37;;;;;;;28.93;50.37;101071.86;1749809;82;21003;-39
2021/07/10 05:43:52;;;;;;;13.38;5.80;;;;;;;28.86;49.13;101065.86;1749894;82;21070;-39
2021/07/10 05:46:19;;;;;;;10.28;5.87;;;;;;;28.99;47.98;101067.80;1749883;82;21915;-39
2021/07/10 05:48:45;;;;;;;12.73;6.05;;;;;;;29.18;47.43;101073.70;1721854;82;21588;-39
2021/07/10 05:51:12;;;;;;;16.30;5.95;;;;;;;29.31;47.13;101068.59;1749265;82;20971;-39
2021/07/10 05:53:38;;;;;;;13.90;5.65;;;;;;;29.47;47.54;101069.44;1749167;82;20976;-39
2021/07/10 05:56:05;;;;;;;16.60;5.55;;;;;;;29.63;48.37;101064.89;1749578;82;20995;-39
2021/07/10 05:58:31;;;;;;;12.47;5.67;;;;;;;29.95;48.83;101061.95;1749287;82;21066;-39
2021/07/10 06:00:58;;;;;;;14.25;5.70;;;;;;;30.21;47.81;101061.91;1749373;82;21015;-39
2021/07/10 06:03:25;;;;;;;32.42;6.28;;;;;;;30.31;47.78;101060.05;1749289;82;20988;-39
2021/07/10 06:05:51;;;;;;;17.17;5.90;;;;;;;30.52;46.59;101056.36;1749229;82;20972;-39
2021/07/10 06:08:17;;;;;;;25.17;6.22;;;;;;;30.68;45.10;101053.92;1749281;82;20940;-39
2021/07/10 06:10:44;;;;;;;28.92;6.60;;;;;;;30.81;44.78;101051.44;1749312;82;21126;-40
2021/07/10 06:13:10;;;;;;;19.77;6.22;;;;;;;30.90;44.07;101050.53;1749241;82;20900;-39
2021/07/10 06:15:37;;;;;;;12.88;5.65;;;;;;;31.01;43.03;101046.83;1749457;82;20972;-39
2021/07/10 06:18:05;;;;;;;14.75;5.47;;;;;;;31.17;43.78;101048.84;1749312;82;21525;-39
2021/07/10 06:20:34;;;;;;;9.83;6.22;;;;;;;31.27;44.12;101050.67;1749305;82;20892;-39
2021/07/10 06:23:00;;;;;;;19.32;7.08;;;;;;;31.29;42.70;101047.34;1749476;81;21118;-40
2021/07/10 06:25:27;;;;;;;16.55;5.87;;;;;;;31.18;41.84;101044.36;1721467;82;21010;-39
2021/07/10 06:27:53;;;;;;;42.45;7.22;;;;;;;31.14;42.16;101051.83;1749234;82;20960;-39
2021/07/10 06:30:20;;;;;;;20.77;6.58;;;;;;;31.05;42.66;101045.53;1749173;82;20893;-39
2021/07/10 06:32:46;;;;;;;20.20;6.25;;;;;;;31.05;42.00;101040.19;1749184;82;20969;-40
2021/07/10 06:35:13;;;;;;;14.13;5.87;;;;;;;31.03;41.35;101037.34;1721577;82;21202;-39
2021/07/10 06:37:39;;;;;;;16.10;6.37;;;;;;;30.97;43.47;101040.10;1721485;82;21027;-40
2021/07/10 06:40:09;;;;;;;23.60;5.85;;;;;;;30.96;42.66;101045.95;1739499;82;21019;-40
2021/07/10 06:42:35;;;;;;;21.65;6.00;;;;;;;30.98;41.11;101043.63;1735151;81;20901;-40
2021/07/10 06:45:08;;;;;;;15.30;5.17;;;;;;;31.00;41.70;101044.32;1735333;82;20985;-39
2021/07/10 06:47:34;;;;;;;25.02;5.67;;;;;;;31.05;41.24;101047.38;1735342;82;21818;-40
2021/07/10 06:50:01;;;;;;;22.25;5.95;;;;;;;31.08;40.15;101047.08;1735173;81;21589;-40
2021/07/10 06:52:27;;;;;;;26.52;6.70;;;;;;;31.07;40.61;101044.92;1735299;82;20988;-40
2021/07/10 06:54:54;;;;;;;32.25;6.67;;;;;;;31.15;40.42;101046.82;1714096;82;21000;-40
2021/07/10 06:57:20;;;;;;;21.97;6.90;;;;;;;31.19;39.51;101042.89;1735281;82;20972;-40
2021/07/10 06:59:47;;;;;;;39.70;6.10;;;;;;;31.21;41.55;101044.94;1735288;82;21134;-40
2021/07/10 07:02:13;;;;;;;24.35;6.03;;;;;;;31.29;39.32;101042.83;1735158;82;20945;-40
2021/07/10 07:04:39;;;;;;;17.65;6.58;;;;;;;31.33;40.29;101038.89;1735169;82;21489;-40
2021/07/10 07:07:07;;;;;;;24.15;6.53;;;;;;;31.36;40.23;101041.73;1735214;81;20933;-40
2021/07/10 07:09:34;;;;;;;34.90;6.67;;;;;;;31.41;40.43;101047.47;1735202;82;21530;-40
2021/07/10 07:12:02;;;;;;;22.65;6.33;;;;;;;31.52;40.87;101040.58;1735312;82;21098;-40
2021/07/10 07:14:28;;;;;;;34.35;6.90;;;;;;;31.49;41.45;101040.03;1735189;82;20957;-40
2021/07/10 07:16:59;;;;;;;31.35;7.17;;;;;;;31.41;41.34;101044.79;1735331;82;20933;-40
2021/07/10 07:19:24;;;;;;;28.75;6.85;;;;;;;31.41;41.07;101037.28;1734790;82;20965;-40
2021/07/10 07:21:51;;;;;;;21.85;6.42;;;;;;;31.63;39.56;101037.31;1735163;82;20937;-40
2021/07/10 07:24:17;;;;;;;20.27;6.65;;;;;;;31.86;40.25;101031.52;1735283;82;21194;-40
2021/07/10 07:26:46;;;;;;;26.45;6.70;;;;;;;32.15;38.99;101031.73;1735264;82;20953;-40
2021/07/10 07:29:12;;;;;;;30.25;6.95;;;;;;;32.32;38.80;101025.53;1713983;82;21075;-40
2021/07/10 07:31:39;;;;;;;13.25;6.30;;;;;;;32.49;37.81;101028.31;1735050;82;21004;-40
2021/07/10 07:34:06;;;;;;;16.60;6.58;;;;;;;32.67;36.97;101031.73;1735219;82;20945;-40
2021/07/10 07:36:32;;;;;;;22.37;6.35;;;;;;;32.78;37.46;101030.61;1714389;82;21060;-40
2021/07/10 07:38:59;;;;;;;21.20;6.65;;;;;;;32.74;37.27;101035.95;1735068;81;20921;-40
2021/07/10 07:41:25;;;;;;;17.40;6.70;;;;;;;32.68;40.17;101033.41;1735345;82;20901;-40
2021/07/10 07:43:52;;;;;;;21.40;6.65;;;;;;;32.69;38.93;101028.91;1735547;82;20965;-40
2021/07/10 07:46:18;;;;;;;17.92;6.67;;;;;;;32.82;40.00;101031.14;1735344;82;21028;-40
2021/07/10 07:48:45;;;;;;;19.92;6.28;;;;;;;32.93;40.22;101031.38;1735357;82;21102;-40
2021/07/10 07:51:18;;;;;;;27.82;6.67;;;;;;;33.19;39.74;101036.64;1735137;82;20981;-40
2021/07/10 07:53:45;;;;;;;13.18;5.97;;;;;;;33.49;38.38;101032.20;1735417;82;20983;-40
2021/07/10 07:56:11;;;;;;;21.23;5.47;;;;;;;33.65;37.68;101026.86;1735259;82;20945;-40
2021/07/10 07:58:41;;;;;;;8.13;5.20;;;;;;;33.76;36.43;101018.13;1735279;82;20997;-40
2021/07/10 08:01:09;;;;;;;18.65;6.20;;;;;;;33.76;36.55;101021.67;1735242;82;21160;-40
2021/07/10 08:03:37;;;;;;;8.35;5.45;;;;;;;33.53;35.28;101023.67;1735132;82;21004;-40
2021/07/10 08:06:04;;;;;;;8.18;4.58;;;;;;;33.51;34.57;101025.69;1735298;82;21486;-40
2021/07/10 08:08:30;;;;;;;11.10;4.75;;;;;;;33.59;35.77;101019.45;1735432;82;21016;-40
2021/07/10 08:10:58;;;;;;;15.75;5.53;;;;;;;33.72;34.14;101013.59;1735138;82;20936;-40
2021/07/10 08:13:25;;;;;;;10.13;4.75;;;;;;;33.88;34.74;101010.09;1735184;82;21323;-39
2021/07/10 08:15:53;;;;;;;9.73;4.08;;;;;;;33.97;32.65;101014.95;1735129;82;20960;-39
2021/07/10 08:18:21;;;;;;;6.95;3.98;;;;;;;33.86;31.55;101009.91;1735134;82;21008;-39
2021/07/10 08:20:49;;;;;;;4.58;4.08;;;;;;;33.65;31.43;101009.91;1735074;82;21526;-40
2021/07/10 08:23:15;;;;;;;5.60;4.00;;;;;;;33.58;30.50;101012.42;1735247;82;20984;-40
2021/07/10 08:25:42;;;;;;;7.47;4.10;;;;;;;33.47;31.97;101010.08;1735313;81;21250;-40
2021/07/10 08:28:08;;;;;;;8.60;4.40;;;;;;;33.50;32.41;101010.59;1735148;81;21521;-40
2021/07/10 08:30:35;;;;;;;14.20;3.90;;;;;;;33.65;33.69;101008.57;1735158;82;20945;-40
2021/07/10 08:33:01;;;;;;;6.22;4.17;;;;;;;33.93;31.83;101001.51;1735090;82;21012;-40
2021/07/10 08:35:28;;;;;;;10.25;4.83;;;;;;;34.25;31.11;101000.65;1735237;82;21003;-39
2021/07/10 08:37:55;;;;;;;12.90;4.25;;;;;;;34.51;29.51;100998.77;1735305;82;22169;-40
2021/07/10 08:40:22;;;;;;;9.55;4.58;;;;;;;34.53;30.40;100998.08;1722757;81;21454;-40
2021/07/10 08:42:50;;;;;;;6.25;4.47;;;;;;;34.56;30.67;100993.70;1756861;81;20991;-40
2021/07/10 08:45:16;;;;;;;7.67;4.47;;;;;;;34.25;29.23;100999.83;1756930;81;21069;-40
2021/07/10 08:47:44;;;;;;;7.45;4.22;;;;;;;33.70;31.31;101002.19;1756958;81;21497;-40
2021/07/10 08:50:16;;;;;;;7.15;4.28;;;;;;;33.62;31.62;101004.39;1756841;81;21058;-40
2021/07/10 08:52:42;;;;;;;6.42;3.92;;;;;;;33.84;31.94;100997.17;1757074;81;21014;-40
2021/07/10 08:55:12;;;;;;;13.58;4.78;;;;;;;34.05;30.79;100998.85;1756804;81;21008;-40
2021/07/10 08:57:39;;;;;;;12.60;4.78;;;;;;;33.78;30.10;100992.81;1754112;81;21231;-40
2021/07/10 09:00:10;;;;;;;10.72;4.53;;;;;;;33.23;30.56;101001.81;1756863;81;20992;-40
2021/07/10 09:02:39;;;;;;;4.47;3.90;;;;;;;33.08;32.35;100992.72;1756828;81;21306;-40
2021/07/10 09:05:08;;;;;;;6.62;4.37;;;;;;;33.39;31.68;100987.59;1756846;81;20943;-40
2021/07/10 09:08:06;;;;;;;4.67;4.28;;;;;;;33.76;29.36;100980.08;1757243;81;21050;-40
2021/07/10 09:10:36;;;;;;;10.48;4.05;;;;;;;33.87;30.04;100983.41;1748552;81;21455;-40
2021/07/10 09:13:04;;;;;;;5.47;4.08;;;;;;;33.85;28.98;100982.73;1757210;81;21490;-40
2021/07/10 09:15:32;;;;;;;7.58;4.22;;;;;;;33.81;29.31;100983.08;1756910;81;21136;-40
2021/07/10 09:18:00;;;;;;;8.80;3.83;;;;;;;33.66;29.36;100995.00;1756799;81;20975;-40
2021/07/10 09:20:28;;;;;;;5.87;4.58;;;;;;;33.55;30.58;100983.25;1728914;81;20947;-40
2021/07/10 09:22:55;;;;;;;7.80;4.25;;;;;;;33.68;29.11;100978.23;1756910;81;20983;-40
2021/07/10 09:25:30;;;;;;;10.58;3.83;;;;;;;33.86;31.32;100979.05;1756998;81;20987;-40
2021/07/10 09:27:58;;;;;;;8.80;4.37;;;;;;;34.07;31.75;100972.67;1756687;81;21810;-40
2021/07/10 09:30:36;;;;;;;5.47;4.00;;;;;;;34.34;30.08;100971.92;1757194;81;21531;-40
2021/07/10 09:33:16;;;;;;;4.95;3.90;;;;;;;34.42;30.01;100972.41;1755642;81;20972;-40
2021/07/10 09:35:54;;;;;;;8.75;4.42;;;;;;;34.39;31.42;100972.75;1757208;81;21016;-40
2021/07/10 09:38:33;;;;;;;4.75;4.00;;;;;;;34.37;29.05;100972.09;1756342;80;21026;-40
2021/07/10 09:41:07;;;;;;;6.65;4.30;;;;;;;34.34;28.78;100971.92;1742937;81;20992;-40
2021/07/10 09:43:36;;;;;;;6.70;4.00;;;;;;;34.30;28.18;100965.23;1735165;82;21023;-40
2021/07/10 09:46:08;;;;;;;9.30;4.28;;;;;;;34.05;28.47;100967.98;1735138;82;21533;-40
2021/07/10 09:48:37;;;;;;;10.20;4.70;;;;;;;33.89;29.75;100960.77;1735289;82;20984;-40
2021/07/10 09:51:25;;;;;;;14.68;12.90;;;;;;;33.75;29.24;100960.95;1735393;82;21490;-40
2021/07/10 09:54:07;;;;;;;6.62;5.25;;;;;;;33.47;30.11;100965.33;1714380;82;21026;-39
2021/07/10 09:56:59;;;;;;;6.60;5.58;;;;;;;33.17;29.73;100970.80;1735148;82;21003;-39
2021/07/10 09:59:26;;;;;;;16.37;10.35;;;;;;;32.92;30.48;100970.23;1735042;82;21592;-39
2021/07/10 10:01:53;;;;;;;8.20;4.65;;;;;;;32.84;31.34;100970.18;1735406;82;21576;-39
2021/07/10 10:04:30;;;;;;;7.22;4.78;;;;;;;32.89;31.46;100968.39;1735161;82;20937;-39
2021/07/10 10:06:58;;;;;;;6.62;4.28;;;;;;;32.89;32.16;100971.07;1714470;82;21090;-39
2021/07/10 10:09:29;;;;;;;6.42;4.35;;;;;;;32.99;32.03;100969.08;1735195;82;21051;-39
2021/07/10 10:12:14;;;;;;;11.00;3.87;;;;;;;33.24;30.17;100967.30;1735606;82;20941;-39
2021/07/10 10:14:50;;;;;;;7.35;4.00;;;;;;;33.34;31.27;100960.41;1735542;82;21494;-39
2021/07/10 10:17:20;;;;;;;5.30;3.90;;;;;;;33.68;29.17;100958.11;1735332;82;20980;-39
2021/07/10 10:19:47;;;;;;;5.67;4.20;;;;;;;34.10;28.39;100958.90;1735222;82;21152;-39
2021/07/10 10:22:15;;;;;;;10.72;4.45;;;;;;;34.32;26.89;100951.61;1735285;82;21579;-39
2021/07/10 10:24:46;;;;;;;6.40;3.60;;;;;;;34.39;27.85;100951.27;1735228;82;20929;-39
2021/07/10 10:27:12;;;;;;;19.85;4.78;;;;;;;34.61;29.06;100955.55;1731714;82;21031;-39
2021/07/10 10:29:39;;;;;;;20.30;4.17;;;;;;;35.02;29.06;100953.19;1728913;81;21008;-40
2021/07/10 10:32:07;;;;;;;41.00;5.85;;;;;;;35.45;28.09;100951.34;1729473;81;21175;-39
2021/07/10 10:34:35;;;;;;;3.83;3.55;;;;;;;35.80;27.85;100947.67;1732479;82;20980;-40
2021/07/10 10:37:05;;;;;;;8.78;3.80;;;;;;;36.07;25.58;100944.05;1724301;82;20956;-39
2021/07/10 10:39:39;;;;;;;10.10;3.98;;;;;;;36.03;24.10;100950.34;1731894;82;20936;-40
2021/07/10 10:42:20;;;;;;;9.63;4.33;;;;;;;35.89;24.23;100951.97;1747800;81;20980;-39
2021/07/10 10:44:48;;;;;;;10.98;4.25;;;;;;;35.88;25.82;100946.77;1721538;82;22648;-39
2021/07/10 10:47:15;;;;;;;5.00;4.50;;;;;;;35.52;26.76;100953.66;1737790;82;20983;-39
2021/07/10 10:49:55;;;;;;;6.37;3.80;;;;;;;35.14;26.44;100953.08;1719589;83;21557;-39
2021/07/10 10:52:32;;;;;;;6.00;4.17;;;;;;;34.99;27.45;100948.11;1732545;82;21573;-39
2021/07/10 10:55:13;;;;;;;6.30;4.20;;;;;;;35.11;26.63;100944.03;1719343;83;20975;-40
2021/07/10 10:57:43;;;;;;;7.53;3.90;;;;;;;34.99;27.81;100940.89;1724608;82;21159;-40
2021/07/10 11:00:30;;;;;;;5.70;5.20;;;;;;;34.91;25.87;100938.27;1719116;83;20980;-40
2021/07/10 11:03:13;;;;;;;20.43;4.28;;;;;;;34.98;27.97;100934.34;1713541;82;21095;-40
2021/07/10 11:05:46;;;;;;;5.50;3.75;;;;;;;35.27;28.50;100932.84;1730208;82;20967;-40
2021/07/10 11:08:30;;;;;;;4.35;3.37;;;;;;;35.50;25.62;100933.65;1734107;82;21498;-40
2021/07/10 11:11:02;;;;;;;5.65;3.70;;;;;;;35.45;25.94;100930.64;1726518;82;21115;-39
2021/07/10 11:13:59;;;;;;;7.47;3.20;;;;;;;35.64;26.42;100922.61;1730519;82;20987;-40
2021/07/10 11:16:25;;;;;;;9.15;4.22;;;;;;;35.78;26.77;100929.03;1745511;82;21574;-39
2021/07/10 11:19:01;;;;;;;10.05;3.80;;;;;;;35.71;27.91;100921.87;1712277;82;21544;-40
2021/07/10 11:21:41;;;;;;;5.35;3.30;;;;;;;35.48;27.53;100921.38;1733843;82;21049;-40
2021/07/10 11:24:21;;;;;;;7.80;3.47;;;;;;;35.19;28.31;100921.11;1727008;82;21165;-40